createdAt,value
2023-01-15T11:20:31.540Z,99043.91
2023-01-15T11:23:07.050Z,99046.03
2023-01-15T11:25:33.784Z,99048.28
2023-01-15T11:28:03.475Z,99047.22
2023-01-15T11:30:33.682Z,99054.88
2023-01-15T11:33:05.483Z,99049.44
2023-01-15T11:35:33.753Z,99053.88
2023-01-15T11:38:05.392Z,99054.56
2023-01-15T11:40:32.182Z,99027.53
2023-01-15T11:43:17.478Z,99032.63
2023-01-15T11:46:07.837Z,99038.56
2023-01-15T11:49:02.430Z,99032.41
2023-01-15T11:51:30.774Z,99030.06
2023-01-15T11:54:03.609Z,99032.41
2023-01-15T11:56:34.108Z,99022.81
2023-01-15T11:59:10.545Z,99036.63
2023-01-15T12:01:43.310Z,99037.53
2023-01-15T12:04:25.194Z,99041.09
2023-01-15T12:06:51.836Z,99039.53
2023-01-15T12:09:24.895Z,99047.41
2023-01-15T12:12:10.712Z,99036.78
2023-01-15T12:15:06.115Z,99045.53
2023-01-15T12:17:46.215Z,99045.41
2023-01-15T12:20:21.988Z,99039.31
2023-01-15T12:23:12.127Z,99038.63
2023-01-15T12:25:41.395Z,99037.56
2023-01-15T12:28:28.421Z,99028.59
2023-01-15T12:31:02.072Z,99027.53
2023-01-15T12:33:37.403Z,99023.09
2023-01-15T12:36:10.343Z,99028.97
2023-01-15T12:39:14.868Z,99028.88
2023-01-15T12:42:02.650Z,99014.06
2023-01-15T12:44:57.697Z,99012.31
2023-01-15T12:47:44.380Z,99015.28
2023-01-15T12:50:33.045Z,99010.19
2023-01-15T12:53:07.039Z,99010.81
2023-01-15T12:55:38.739Z,99010.13
2023-01-15T12:58:13.541Z,99016.22
2023-01-15T13:00:43.784Z,99010.34
2023-01-15T13:03:17.102Z,99023.31
2023-01-15T13:05:48.382Z,99023.19
2023-01-15T13:08:31.071Z,99023.25
2023-01-15T13:10:58.196Z,99028.50
2023-01-15T13:13:29.888Z,99021.59
2023-01-15T13:16:12.527Z,99027.69
2023-01-15T13:19:05.936Z,99014.25
2023-01-15T13:21:34.917Z,99005.28
2023-01-15T13:24:17.074Z,99015.66
2023-01-15T13:26:50.144Z,99017.59
2023-01-15T13:29:30.454Z,99005.78
2023-01-15T13:32:09.910Z,99005.00
2023-01-15T13:35:14.824Z,99007.66
2023-01-15T13:37:44.974Z,99010.53
2023-01-15T13:40:38.372Z,99005.28
2023-01-15T13:43:07.362Z,99017.78
2023-01-15T13:45:36.881Z,99024.69
2023-01-15T13:48:15.827Z,99019.53
2023-01-15T13:50:57.847Z,99026.25
2023-01-15T13:53:30.805Z,99018.47
2023-01-15T13:56:02.526Z,99024.69
2023-01-15T13:58:34.867Z,99034.50
2023-01-15T14:01:10.043Z,99031.97
2023-01-15T14:03:38.348Z,99032.94
2023-01-15T14:06:08.057Z,99020.66
2023-01-15T14:08:44.597Z,99035.66
2023-01-15T14:11:35.687Z,99044.50
2023-01-15T14:14:31.515Z,99041.94
2023-01-15T14:17:06.835Z,99054.41
2023-01-15T14:19:58.420Z,99048.31
2023-01-15T14:22:30.958Z,99068.38
2023-01-15T14:25:32.834Z,99062.31
2023-01-15T14:28:22.369Z,99072.09
2023-01-15T14:30:58.127Z,99066.66
2023-01-15T14:33:34.652Z,99061.47
2023-01-15T14:36:17.414Z,99069.44
2023-01-15T14:38:51.935Z,99068.84
2023-01-15T14:41:29.537Z,99071.63
2023-01-15T14:43:59.550Z,99064.66
2023-01-15T14:46:34.358Z,99072.69
2023-01-15T14:49:01.854Z,99071.88
2023-01-15T14:51:31.860Z,99072.84
2023-01-15T14:54:06.552Z,99076.28
2023-01-15T14:56:40.224Z,99082.31
2023-01-15T14:59:27.985Z,99083.94
2023-01-15T15:02:01.963Z,99087.63
2023-01-15T15:04:39.724Z,99075.25
2023-01-15T15:07:22.838Z,99084.94
2023-01-15T15:10:01.230Z,99068.25
2023-01-15T15:12:44.935Z,99069.97
2023-01-15T15:15:15.151Z,99064.00
2023-01-15T15:17:53.781Z,99071.94
2023-01-15T15:20:39.673Z,99061.66
2023-01-15T15:23:21.632Z,99074.28
2023-01-15T15:25:56.096Z,99073.25
2023-01-15T15:28:23.129Z,99064.63
2023-01-15T15:30:50.360Z,99076.78
2023-01-15T15:33:25.705Z,99073.25
2023-01-15T15:35:58.451Z,99064.56
2023-01-15T15:38:26.449Z,99068.19
2023-01-15T15:41:02.468Z,99073.44
2023-01-15T15:44:05.431Z,99084.78
2023-01-15T15:46:51.213Z,99078.03
2023-01-15T15:49:20.113Z,99081.53
2023-01-15T15:51:50.025Z,99069.34
2023-01-15T15:54:22.417Z,99075.53
2023-01-15T15:57:07.221Z,99078.38
2023-01-15T15:59:36.658Z,99070.56
2023-01-15T16:02:26.058Z,99078.44
2023-01-15T16:04:54.744Z,99068.91
2023-01-15T16:07:33.612Z,99074.19
2023-01-15T16:10:03.890Z,99059.63
2023-01-15T16:12:33.483Z,99062.41
2023-01-15T16:15:00.518Z,99059.84
2023-01-15T16:17:28.229Z,99066.84
2023-01-15T16:19:56.834Z,99067.81
2023-01-15T16:22:23.655Z,99061.66
2023-01-15T16:24:58.063Z,99061.66
2023-01-15T16:27:33.955Z,99065.38
2023-01-15T16:30:00.684Z,99068.06
2023-01-15T16:32:29.523Z,99064.44
2023-01-15T16:35:05.370Z,99068.06
2023-01-15T16:37:32.590Z,99066.34
2023-01-15T16:40:00.028Z,99060.25
2023-01-15T16:42:34.257Z,99073.16
2023-01-15T16:45:01.845Z,99077.56
2023-01-15T16:47:33.269Z,99084.69
2023-01-15T16:50:21.784Z,99086.28
2023-01-15T16:52:56.756Z,99085.72
2023-01-15T16:55:38.265Z,99080.31
2023-01-15T16:58:16.357Z,99078.78
2023-01-15T17:00:51.031Z,99085.78
2023-01-15T17:03:23.021Z,99083.06
2023-01-15T17:05:53.521Z,99076.06
2023-01-15T17:08:27.319Z,99077.97
2023-01-15T17:10:56.376Z,99087.56
2023-01-15T17:13:29.139Z,99085.03
2023-01-15T17:16:13.911Z,99083.31
2023-01-15T17:18:40.558Z,99078.13
2023-01-15T17:21:15.458Z,99087.69
2023-01-15T17:23:42.970Z,99078.94
2023-01-15T17:26:18.959Z,99078.94
2023-01-15T17:28:46.452Z,99082.25
2023-01-15T17:31:20.783Z,99075.31
2023-01-15T17:33:51.768Z,99071.88
2023-01-15T17:36:24.170Z,99079.63
2023-01-15T17:38:52.165Z,99075.25
2023-01-15T17:41:20.949Z,99084.88
2023-01-15T17:43:47.877Z,99081.44
2023-01-15T17:46:14.693Z,99087.50
2023-01-15T17:48:41.668Z,99091.03
2023-01-15T17:51:16.636Z,99089.13
2023-01-15T17:53:43.477Z,99081.13
2023-01-15T17:56:28.954Z,99080.16
2023-01-15T17:59:34.049Z,99073.84
2023-01-15T18:02:20.257Z,99081.00
2023-01-15T18:05:07.489Z,99076.41
2023-01-15T18:07:40.917Z,99068.56
2023-01-15T18:10:17.395Z,99078.22
2023-01-15T18:12:44.141Z,99069.47
2023-01-15T18:15:11.047Z,99077.44
2023-01-15T18:17:37.825Z,99081.72
2023-01-15T18:20:04.995Z,99063.41
2023-01-15T18:22:31.640Z,99073.78
2023-01-15T18:24:58.442Z,99070.31
2023-01-15T18:27:29.969Z,99066.84
2023-01-15T18:29:57.327Z,99069.50
2023-01-15T18:32:33.353Z,99077.19
2023-01-15T18:35:00.425Z,99073.59
2023-01-15T18:37:27.033Z,99064.84
2023-01-15T18:39:53.622Z,99068.38
2023-01-15T18:42:38.954Z,99087.56
2023-01-15T18:45:25.271Z,99084.09
2023-01-15T18:47:52.849Z,99073.78
2023-01-15T18:50:19.781Z,99085.28
2023-01-15T18:52:50.195Z,99081.69
2023-01-15T18:55:22.669Z,99074.00
2023-01-15T18:57:49.307Z,99085.44
2023-01-15T19:00:16.434Z,99090.63
2023-01-15T19:02:45.073Z,99091.47
2023-01-15T19:05:13.159Z,99100.19
2023-01-15T19:07:40.606Z,99101.00
2023-01-15T19:10:07.552Z,99109.41
2023-01-15T19:12:36.877Z,99112.03
2023-01-15T19:15:23.722Z,99107.50
2023-01-15T19:18:09.172Z,99114.44
2023-01-15T19:20:37.887Z,99107.47
2023-01-15T19:23:06.628Z,99117.78
2023-01-15T19:25:44.408Z,99117.78
2023-01-15T19:28:16.502Z,99120.34
2023-01-15T19:31:05.060Z,99118.59
2023-01-15T19:33:32.695Z,99103.91
2023-01-15T19:35:59.459Z,99123.00
2023-01-15T19:38:26.383Z,99120.38
2023-01-15T19:40:53.127Z,99130.09
2023-01-15T19:43:38.454Z,99123.00
2023-01-15T19:46:24.387Z,99110.72
2023-01-15T19:49:09.842Z,99122.22
2023-01-15T19:51:56.651Z,99130.13
2023-01-15T19:54:43.579Z,99128.41
2023-01-15T19:57:10.433Z,99131.03
2023-01-15T19:59:39.372Z,99130.13
2023-01-15T20:02:05.983Z,99120.38
2023-01-15T20:04:32.616Z,99125.66
2023-01-15T20:06:59.319Z,99135.19
2023-01-15T20:09:26.223Z,99119.53
2023-01-15T20:12:11.386Z,99135.38
2023-01-15T20:14:38.295Z,99122.31
2023-01-15T20:17:04.855Z,99132.88
2023-01-15T20:19:31.527Z,99126.88
2023-01-15T20:21:58.856Z,99124.25
2023-01-15T20:24:25.549Z,99131.28
2023-01-15T20:26:52.111Z,99120.06
2023-01-15T20:29:18.672Z,99128.72
2023-01-15T20:31:45.301Z,99135.72
2023-01-15T20:34:11.963Z,99120.94
2023-01-15T20:36:38.802Z,99135.16
2023-01-15T20:39:05.513Z,99130.72
2023-01-15T20:41:50.721Z,99128.00
2023-01-15T20:44:36.284Z,99122.63
2023-01-15T20:47:23.022Z,99130.34
2023-01-15T20:49:49.825Z,99128.84
2023-01-15T20:52:16.397Z,99128.81
2023-01-15T20:54:43.050Z,99138.34
2023-01-15T20:57:09.692Z,99133.81
2023-01-15T20:59:36.256Z,99133.88
2023-01-15T21:02:02.868Z,99132.03
2023-01-15T21:04:32.696Z,99133.00
2023-01-15T21:06:59.310Z,99138.34
2023-01-15T21:09:26.363Z,99132.88
2023-01-15T21:11:52.945Z,99130.34
2023-01-15T21:14:19.588Z,99137.09
2023-01-15T21:16:46.204Z,99137.19
2023-01-15T21:19:13.146Z,99138.91
2023-01-15T21:21:40.650Z,99138.16
2023-01-15T21:24:07.702Z,99132.78
2023-01-15T21:26:42.580Z,99140.66
2023-01-15T21:29:09.207Z,99141.50
2023-01-15T21:31:35.987Z,99147.59
2023-01-15T21:34:04.419Z,99139.84
2023-01-15T21:36:31.513Z,99151.28
2023-01-15T21:39:00.671Z,99143.44
2023-01-15T21:41:46.509Z,99150.47
2023-01-15T21:44:36.205Z,99155.69
2023-01-15T21:47:05.475Z,99153.06
2023-01-15T21:49:33.526Z,99153.22
2023-01-15T21:52:01.400Z,99152.38
2023-01-15T21:54:28.559Z,99158.47
2023-01-15T21:56:55.626Z,99162.16
2023-01-15T21:59:22.316Z,99164.63
2023-01-15T22:01:52.147Z,99172.44
2023-01-15T22:04:21.223Z,99170.81
2023-01-15T22:06:47.943Z,99172.41
2023-01-15T22:09:14.855Z,99169.78
2023-01-15T22:11:44.339Z,99175.88
2023-01-15T22:14:19.493Z,99171.47
2023-01-15T22:16:47.099Z,99175.84
2023-01-15T22:19:19.757Z,99180.25
2023-01-15T22:21:52.535Z,99178.47
2023-01-15T22:24:20.060Z,99175.88
2023-01-15T22:26:54.432Z,99176.78
2023-01-15T22:29:25.883Z,99183.94
2023-01-15T22:31:53.100Z,99190.16
2023-01-15T22:34:24.538Z,99186.66
2023-01-15T22:36:52.048Z,99186.41
2023-01-15T22:39:19.199Z,99180.25
2023-01-15T22:42:10.613Z,99184.66
2023-01-15T22:44:40.499Z,99177.78
2023-01-15T22:47:07.290Z,99187.25
2023-01-15T22:49:34.136Z,99189.72
2023-01-15T22:52:07.858Z,99185.50
2023-01-15T22:54:34.548Z,99190.00
2023-01-15T22:57:05.228Z,99187.25
2023-01-15T22:59:32.005Z,99202.03
2023-01-15T23:01:58.983Z,99189.00
2023-01-15T23:04:25.937Z,99202.06
2023-01-15T23:06:54.724Z,99183.78
2023-01-15T23:09:23.103Z,99187.53
2023-01-15T23:11:51.698Z,99184.16
2023-01-15T23:14:20.101Z,99177.94
2023-01-15T23:16:47.319Z,99175.47
2023-01-15T23:19:14.666Z,99187.06
2023-01-15T23:21:41.655Z,99177.34
2023-01-15T23:24:08.404Z,99180.03
2023-01-15T23:26:35.381Z,99185.88
2023-01-15T23:29:02.213Z,99190.78
2023-01-15T23:31:29.328Z,99196.50
2023-01-15T23:33:59.075Z,99187.47
2023-01-15T23:36:26.356Z,99190.19
2023-01-15T23:38:53.121Z,99190.34
2023-01-15T23:41:43.026Z,99194.47
2023-01-15T23:44:38.858Z,99194.47
2023-01-15T23:47:07.682Z,99185.66
2023-01-15T23:49:34.318Z,99189.34
2023-01-15T23:52:01.177Z,99177.97
2023-01-15T23:54:29.858Z,99187.47
2023-01-15T23:56:57.970Z,99190.22
2023-01-15T23:59:25.565Z,99183.16
